Time;durP1;ratioP1;P1;durP2;ratioP2;P2;SDS_P1;SDS_P2;PMS_P1;PMS_P2;Temp;Humidity;BMP_temperature;BMP_pressure;BME280_temperature;BME280_humidity;BME280_pressure;Samples;Min_cycle;Max_cycle;Signal;HPM_P1;HPM_P2
2024/03/19 00:01:03;;;;;;;6.20;3.60;;;;;;;3.94;100.00;100324.46;106414;1259;68332;-84
2024/03/19 00:03:43;;;;;;;6.40;4.20;;;;;;;3.95;100.00;100326.79;106248;1257;72645;-77
2024/03/19 00:06:23;;;;;;;7.70;4.30;;;;;;;3.95;100.00;100325.57;106519;1256;62607;-85
2024/03/19 00:09:07;;;;;;;8.20;5.80;;;;;;;3.95;100.00;100319.67;106561;1257;62141;-77
2024/03/19 00:11:47;;;;;;;6.40;4.20;;;;;;;3.92;100.00;100316.31;106474;1257;75375;-85
2024/03/19 00:14:21;;;;;;;5.00;3.50;;;;;;;3.93;100.00;100319.29;107068;1254;68701;-84
2024/03/19 00:16:54;;;;;;;8.50;5.40;;;;;;;3.89;100.00;100319.37;106505;1257;72688;-77
2024/03/19 00:19:34;;;;;;;6.50;3.90;;;;;;;3.73;100.00;100318.46;106455;1257;62021;-85
2024/03/19 00:22:14;;;;;;;6.20;3.70;;;;;;;3.69;100.00;100318.63;106480;1259;62082;-77
2024/03/19 00:24:48;;;;;;;5.40;4.00;;;;;;;3.74;100.00;100320.04;106506;1257;75413;-78
2024/03/19 00:27:22;;;;;;;10.20;5.80;;;;;;;3.79;100.00;100323.60;106464;1254;68580;-85
2024/03/19 00:30:08;;;;;;;7.30;4.70;;;;;;;3.78;100.00;100328.02;106512;1255;72786;-77
2024/03/19 00:32:50;;;;;;;7.40;4.80;;;;;;;3.75;100.00;100326.87;106669;1254;62180;-77
2024/03/19 00:35:24;;;;;;;8.30;5.70;;;;;;;3.72;100.00;100329.23;108318;1254;62165;-78
2024/03/19 00:37:58;;;;;;;12.20;5.60;;;;;;;3.75;100.00;100331.45;106977;1254;74129;-84
2024/03/19 00:40:38;;;;;;;10.70;5.70;;;;;;;3.77;100.00;100332.85;107397;1257;67432;-84
2024/03/19 00:43:18;;;;;;;9.70;6.10;;;;;;;3.80;100.00;100334.01;106615;1256;72820;-77
2024/03/19 00:45:52;;;;;;;10.00;6.20;;;;;;;3.84;100.00;100333.98;106334;1259;62130;-77
2024/03/19 00:48:26;;;;;;;15.60;6.90;;;;;;;3.87;100.00;100337.02;106485;1254;62057;-85
2024/03/19 00:51:06;;;;;;;11.10;6.60;;;;;;;3.86;100.00;100334.09;106544;1256;75418;-77
2024/03/19 00:53:45;;;;;;;10.50;6.70;;;;;;;3.82;100.00;100333.89;105934;1259;68428;-77
2024/03/19 00:56:19;;;;;;;11.40;6.30;;;;;;;3.87;100.00;100330.96;106039;1254;74016;-84
2024/03/19 00:58:53;;;;;;;10.10;6.90;;;;;;;3.94;100.00;100329.71;105985;1254;62178;-77
2024/03/19 01:01:33;;;;;;;11.30;6.80;;;;;;;3.89;100.00;100327.73;106100;1254;62162;-76
2024/03/19 01:04:13;;;;;;;10.70;7.30;;;;;;;3.90;100.00;100332.27;106653;1258;75499;-83
2024/03/19 01:06:40;;;;;;;12.00;7.10;;;;;;;3.85;100.00;100335.21;106160;1257;68490;-79
2024/03/19 01:09:22;;;;;;;9.00;5.70;;;;;;;3.87;100.00;100335.99;106052;1254;72716;-84
2024/03/19 01:12:02;;;;;;;9.30;5.50;;;;;;;3.93;100.00;100336.92;106245;1254;62136;-85
2024/03/19 01:14:42;;;;;;;10.30;6.50;;;;;;;3.92;100.00;100339.40;105990;1252;62091;-77
2024/03/19 01:17:09;;;;;;;10.50;6.00;;;;;;;3.89;100.00;100341.50;106144;1254;74243;-84
2024/03/19 01:19:49;;;;;;;11.80;5.50;;;;;;;3.88;100.00;100345.33;105906;1254;67093;-84
2024/03/19 01:22:29;;;;;;;8.90;5.70;;;;;;;3.90;100.00;100347.08;105989;1254;72705;-84
2024/03/19 01:25:08;;;;;;;9.30;6.40;;;;;;;3.88;100.00;100347.21;106080;1254;61935;-84
2024/03/19 01:27:36;;;;;;;11.60;6.70;;;;;;;3.87;100.00;100351.52;106865;1256;62091;-78
2024/03/19 01:30:16;;;;;;;12.30;6.80;;;;;;;3.88;100.00;100351.48;106516;1254;77598;-85
2024/03/19 01:32:55;;;;;;;10.80;7.10;;;;;;;3.91;100.00;100351.97;106586;1257;67114;-78
2024/03/19 01:35:30;;;;;;;13.00;6.80;;;;;;;3.94;100.00;100354.30;106367;1257;72781;-77
2024/03/19 01:38:04;;;;;;;10.30;5.80;;;;;;;3.98;100.00;100355.25;106641;1257;62052;-77
2024/03/19 01:40:44;;;;;;;12.20;7.60;;;;;;;4.01;100.00;100356.14;106447;1257;62060;-77
2024/03/19 01:43:21;;;;;;;12.10;7.00;;;;;;;4.06;100.00;100364.42;106355;1260;75774;-85
2024/03/19 01:46:07;;;;;;;9.30;5.60;;;;;;;4.07;100.00;100365.57;107006;1256;67855;-77
2024/03/19 01:48:36;;;;;;;12.90;6.90;;;;;;;4.09;100.00;100368.31;106187;1257;71673;-84
2024/03/19 01:51:16;;;;;;;10.60;6.20;;;;;;;4.09;100.00;100373.02;105861;1260;62129;-77
2024/03/19 01:53:50;;;;;;;11.90;6.60;;;;;;;4.11;100.00;100370.63;106081;1254;62196;-77
2024/03/19 01:56:20;;;;;;;11.20;5.80;;;;;;;4.10;100.00;100367.20;106078;1256;75414;-84
2024/03/19 01:58:54;;;;;;;12.70;7.30;;;;;;;4.06;100.00;100369.37;106060;1254;67091;-77
2024/03/19 02:01:34;;;;;;;13.90;7.80;;;;;;;4.05;100.00;100371.74;105951;1254;71394;-77
2024/03/19 02:04:02;;;;;;;11.70;6.50;;;;;;;4.05;100.00;100368.17;106034;1255;61938;-84
2024/03/19 02:06:36;;;;;;;11.90;7.50;;;;;;;4.03;100.00;100368.83;106136;1255;62166;-77
2024/03/19 02:09:13;;;;;;;12.60;7.40;;;;;;;3.99;100.00;100369.23;106210;1257;193767;-84
2024/03/19 02:11:47;;;;;;;9.90;6.50;;;;;;;3.93;100.00;100377.44;106216;1254;68327;-77
2024/03/19 02:14:21;;;;;;;12.30;7.40;;;;;;;3.88;100.00;100382.68;106166;1254;72861;-84
2024/03/19 02:16:55;;;;;;;14.70;7.80;;;;;;;3.78;100.00;100384.20;105969;1254;62197;-84
2024/03/19 02:19:29;;;;;;;14.30;7.70;;;;;;;3.72;100.00;100387.67;106049;1260;62140;-84
2024/03/19 02:22:03;;;;;;;12.00;7.50;;;;;;;3.69;100.00;100385.37;106222;1254;74187;-84
2024/03/19 02:24:37;;;;;;;13.70;7.30;;;;;;;3.59;100.00;100389.11;106110;1254;68409;-77
2024/03/19 02:27:05;;;;;;;13.10;6.80;;;;;;;3.53;100.00;100390.35;105986;1257;72715;-77
2024/03/19 02:29:45;;;;;;;13.40;7.30;;;;;;;3.45;100.00;100393.37;106756;1253;62126;-85
2024/03/19 02:32:12;;;;;;;10.70;7.10;;;;;;;3.37;100.00;100396.63;105966;1254;62248;-85
2024/03/19 02:34:46;;;;;;;13.00;6.80;;;;;;;3.34;100.00;100400.17;106125;1256;75604;-84
2024/03/19 02:37:20;;;;;;;10.00;5.90;;;;;;;3.26;100.00;100404.77;105975;1255;67116;-77
2024/03/19 02:39:54;;;;;;;13.20;7.00;;;;;;;3.16;100.00;100413.45;105988;1258;71468;-77
2024/03/19 02:42:27;;;;;;;13.30;8.00;;;;;;;3.09;100.00;100418.34;106129;1254;62169;-84
2024/03/19 02:45:01;;;;;;;11.10;6.20;;;;;;;3.09;100.00;100424.00;105948;1259;60560;-77
2024/03/19 02:47:35;;;;;;;12.20;6.30;;;;;;;3.16;100.00;100428.78;105985;1260;74183;-77
2024/03/19 02:50:09;;;;;;;12.70;7.30;;;;;;;3.16;100.00;100431.48;106321;1254;68349;-85
2024/03/19 02:52:43;;;;;;;10.60;6.20;;;;;;;3.20;100.00;100432.34;106101;1254;72385;-84
2024/03/19 02:55:10;;;;;;;11.50;6.70;;;;;;;3.24;100.00;100433.85;106283;1254;62145;-76
2024/03/19 02:57:44;;;;;;;10.70;6.20;;;;;;;3.29;100.00;100436.58;106579;1254;62059;-77
2024/03/19 03:00:18;;;;;;;12.80;7.80;;;;;;;3.35;100.00;100436.90;106552;1258;75460;-84
2024/03/19 03:02:52;;;;;;;17.40;8.50;;;;;;;3.39;100.00;100440.07;106446;1254;67279;-85
2024/03/19 03:05:26;;;;;;;14.70;7.40;;;;;;;3.41;100.00;100447.19;106252;1260;74185;-77
2024/03/19 03:08:00;;;;;;;13.70;8.60;;;;;;;3.47;100.00;100451.08;106615;1256;61928;-85
2024/03/19 03:10:34;;;;;;;14.40;7.60;;;;;;;3.49;100.00;100451.46;106873;1254;62117;-85
2024/03/19 03:13:08;;;;;;;15.00;8.50;;;;;;;3.55;100.00;100456.11;106019;1254;75452;-85
2024/03/19 03:15:42;;;;;;;14.00;8.10;;;;;;;3.55;100.00;100455.91;106198;1257;67478;-85
2024/03/19 03:18:10;;;;;;;14.80;8.50;;;;;;;3.55;100.00;100459.15;106045;1254;73067;-85
2024/03/19 03:20:50;;;;;;;13.90;8.50;;;;;;;3.59;100.00;100462.05;105999;1257;62019;-78
2024/03/19 03:23:17;;;;;;;15.70;8.80;;;;;;;3.61;100.00;100463.98;106040;1254;62084;-85
2024/03/19 03:25:52;;;;;;;15.10;9.20;;;;;;;3.64;100.00;100464.45;105970;1257;75412;-84
2024/03/19 03:28:25;;;;;;;14.20;8.50;;;;;;;3.68;100.00;100464.71;106111;1257;66850;-85
2024/03/19 03:30:59;;;;;;;14.50;9.00;;;;;;;3.66;100.00;100472.02;106361;1254;72603;-84
2024/03/19 03:33:32;;;;;;;15.80;9.00;;;;;;;3.69;100.00;100471.17;106097;1254;62174;-84
2024/03/19 03:36:06;;;;;;;12.80;8.30;;;;;;;3.76;100.00;100474.89;106045;1257;61983;-85
2024/03/19 03:38:40;;;;;;;16.00;9.90;;;;;;;3.78;100.00;100474.67;105968;1257;73811;-77
2024/03/19 03:41:14;;;;;;;15.00;9.30;;;;;;;3.79;100.00;100474.33;105969;1254;68875;-77
2024/03/19 03:43:48;;;;;;;15.80;9.20;;;;;;;3.81;100.00;100474.15;105862;1260;72437;-85
2024/03/19 03:46:26;;;;;;;14.60;9.00;;;;;;;3.81;100.00;100474.92;106128;1257;62063;-84
2024/03/19 03:49:06;;;;;;;16.90;10.10;;;;;;;3.82;100.00;100471.86;105974;1257;62047;-83
2024/03/19 03:51:46;;;;;;;18.40;10.40;;;;;;;3.82;100.00;100474.02;106132;1257;75478;-77
2024/03/19 03:54:26;;;;;;;17.00;10.00;;;;;;;3.84;100.00;100470.30;106161;1254;67582;-77
2024/03/19 03:57:06;;;;;;;15.70;8.60;;;;;;;3.81;100.00;100473.27;105796;1254;72719;-77
2024/03/19 03:59:47;;;;;;;15.90;8.80;;;;;;;3.80;100.00;100472.81;106271;1254;62162;-84
2024/03/19 04:02:27;;;;;;;19.40;9.80;;;;;;;3.80;100.00;100473.16;105931;1254;62169;-85
2024/03/19 04:05:07;;;;;;;17.50;10.20;;;;;;;3.76;100.00;100472.42;106120;1253;75470;-77
2024/03/19 04:07:48;;;;;;;16.20;9.30;;;;;;;3.78;100.00;100471.54;106073;1253;68405;-77
2024/03/19 04:10:28;;;;;;;19.30;11.10;;;;;;;3.81;100.00;100473.13;105995;1253;72655;-77
2024/03/19 04:13:08;;;;;;;18.60;10.70;;;;;;;3.81;100.00;100477.58;105967;1253;62134;-85
2024/03/19 04:15:49;;;;;;;15.00;8.90;;;;;;;3.83;100.00;100479.89;107416;1254;62858;-85
2024/03/19 04:18:29;;;;;;;19.90;10.80;;;;;;;3.84;100.00;100479.91;106189;1257;74102;-84
2024/03/19 04:21:09;;;;;;;17.90;10.10;;;;;;;3.85;100.00;100479.60;106109;1254;68748;-84
2024/03/19 04:23:37;;;;;;;17.30;9.00;;;;;;;3.87;100.00;100487.11;106121;1257;71429;-84
2024/03/19 04:26:17;;;;;;;20.00;10.60;;;;;;;3.85;100.00;100486.21;105973;1254;62154;-85
2024/03/19 04:28:57;;;;;;;15.60;9.50;;;;;;;3.88;100.00;100488.27;106171;1254;61970;-84
2024/03/19 04:31:37;;;;;;;13.40;8.10;;;;;;;3.85;100.00;100491.77;106023;1254;75542;-77
2024/03/19 04:34:11;;;;;;;12.90;7.50;;;;;;;3.85;100.00;100489.83;106398;1254;67647;-77
2024/03/19 04:36:45;;;;;;;14.60;8.20;;;;;;;3.85;100.00;100490.90;106038;1254;71262;-77
2024/03/19 04:39:24;;;;;;;13.20;8.40;;;;;;;3.87;100.00;100495.00;106114;1254;62094;-77
2024/03/19 04:42:04;;;;;;;13.90;7.80;;;;;;;3.97;100.00;100497.61;106572;1254;62143;-85
2024/03/19 04:44:38;;;;;;;14.40;7.80;;;;;;;4.03;100.00;100499.86;106250;1254;73228;-77
2024/03/19 04:47:12;;;;;;;14.60;7.80;;;;;;;4.10;100.00;100498.93;106264;1254;68416;-77
2024/03/19 04:49:52;;;;;;;13.40;7.60;;;;;;;4.10;100.00;100500.34;107122;1254;71418;-85
2024/03/19 04:52:32;;;;;;;12.40;7.40;;;;;;;4.12;100.00;100506.51;106571;1257;62140;-78
2024/03/19 04:55:06;;;;;;;12.80;7.70;;;;;;;4.12;100.00;100514.41;106754;1252;62184;-85
2024/03/19 04:57:39;;;;;;;13.80;7.60;;;;;;;4.20;100.00;100518.64;106408;1254;74257;-78
2024/03/19 05:00:21;;;;;;;11.70;7.30;;;;;;;4.21;100.00;100525.70;106418;1256;67133;-85
2024/03/19 05:02:59;;;;;;;12.40;8.00;;;;;;;4.27;100.00;100522.80;106309;1254;72705;-85
2024/03/19 05:05:33;;;;;;;12.90;7.90;;;;;;;4.39;100.00;100529.83;106611;1253;62811;-78
2024/03/19 05:08:01;;;;;;;10.50;6.60;;;;;;;4.43;100.00;100535.34;106816;1253;62134;-78
2024/03/19 05:10:34;;;;;;;111.50;104.00;;;;;;;4.48;100.00;100543.02;106505;1254;74200;-78
2024/03/19 05:13:08;;;;;;;11.90;7.40;;;;;;;4.52;100.00;100546.52;106590;1257;67157;-78
2024/03/19 05:15:42;;;;;;;14.70;8.10;;;;;;;4.55;100.00;100550.76;106503;1254;72650;-78
2024/03/19 05:18:10;;;;;;;12.80;7.90;;;;;;;4.55;100.00;100558.07;106570;1254;62155;-78
2024/03/19 05:20:43;;;;;;;12.40;6.60;;;;;;;4.57;100.00;100557.20;106455;1253;61957;-79
2024/03/19 05:23:17;;;;;;;11.60;8.00;;;;;;;4.63;100.00;100560.14;106435;1254;74231;-85
2024/03/19 05:25:51;;;;;;;11.00;7.80;;;;;;;4.72;100.00;100561.21;106770;1253;68715;-85
2024/03/19 05:28:18;;;;;;;8.10;5.40;;;;;;;4.77;100.00;100566.55;106522;1254;72722;-85
2024/03/19 05:30:52;;;;;;;11.90;7.40;;;;;;;4.76;100.00;100567.98;106478;1254;62153;-84
2024/03/19 05:33:26;;;;;;;12.00;6.80;;;;;;;4.78;100.00;100572.20;106583;1253;62146;-85
2024/03/19 05:35:55;;;;;;;10.60;6.40;;;;;;;4.80;100.00;100572.35;106373;1254;75423;-85
2024/03/19 05:38:28;;;;;;;8.00;6.00;;;;;;;4.82;100.00;100575.92;107271;1257;67404;-85
2024/03/19 05:41:02;;;;;;;10.90;6.90;;;;;;;4.85;100.00;100575.39;106402;1253;71756;-85
2024/03/19 05:43:36;;;;;;;11.00;7.20;;;;;;;4.91;100.00;100576.70;106510;1254;62085;-83
2024/03/19 05:46:04;;;;;;;8.40;5.70;;;;;;;4.95;100.00;100580.02;106527;1253;62724;-77
2024/03/19 05:48:39;;;;;;;9.70;5.70;;;;;;;5.02;100.00;100578.17;106477;1252;75437;-85
2024/03/19 05:51:12;;;;;;;11.00;6.20;;;;;;;5.03;100.00;100584.80;106409;1254;68783;-78
2024/03/19 05:53:46;;;;;;;12.70;7.30;;;;;;;5.05;100.00;100584.44;106755;1253;72700;-77
2024/03/19 05:56:14;;;;;;;8.90;5.40;;;;;;;5.07;100.00;100588.58;106605;1253;62009;-77
2024/03/19 05:58:48;;;;;;;8.90;6.20;;;;;;;5.04;100.00;100590.53;106522;1254;62034;-77
2024/03/19 06:01:22;;;;;;;10.00;6.80;;;;;;;5.05;100.00;100595.84;106312;1256;74188;-77
2024/03/19 06:03:55;;;;;;;13.50;7.50;;;;;;;5.17;100.00;100598.77;106364;1260;67122;-77
2024/03/19 06:06:23;;;;;;;8.80;6.10;;;;;;;5.17;100.00;100600.70;106252;1261;75080;-84
2024/03/19 06:08:57;;;;;;;12.00;7.90;;;;;;;5.14;100.00;100604.50;106970;1257;62033;-83
2024/03/19 06:11:31;;;;;;;13.70;8.30;;;;;;;5.14;100.00;100605.59;105821;1259;62233;-83
2024/03/19 06:13:58;;;;;;;10.40;7.10;;;;;;;5.15;100.00;100606.61;105983;1253;78266;-84
2024/03/19 06:16:33;;;;;;;12.70;7.10;;;;;;;5.13;100.00;100607.60;105924;1258;69376;-84
2024/03/19 06:19:07;;;;;;;11.90;8.30;;;;;;;5.15;100.00;100610.15;105909;1256;71497;-82
2024/03/19 06:21:55;;;;;;;14.50;8.40;;;;;;;5.13;100.00;100605.89;105968;1257;60389;-83
2024/03/19 06:24:22;;;;;;;8.40;5.90;;;;;;;5.20;100.00;100604.94;105903;1257;62053;-84
2024/03/19 06:26:57;;;;;;;10.30;7.00;;;;;;;5.26;100.00;100609.73;105979;1260;75424;-84
2024/03/19 06:29:30;;;;;;;14.20;8.70;;;;;;;5.25;100.00;100607.70;105708;1259;66152;-84
2024/03/19 06:32:08;;;;;;;13.40;8.50;;;;;;;5.30;100.00;100611.73;105841;1258;73231;-84
2024/03/19 06:34:36;;;;;;;12.50;8.40;;;;;;;5.33;100.00;100608.45;105615;1257;62149;-85
2024/03/19 06:37:09;;;;;;;14.40;8.50;;;;;;;5.38;100.00;100612.02;106898;1259;62170;-85
2024/03/19 06:39:43;;;;;;;11.90;7.50;;;;;;;5.36;100.00;100611.00;106211;1254;74159;-78
2024/03/19 06:42:17;;;;;;;14.30;8.00;;;;;;;5.36;100.00;100611.55;106260;1253;67481;-78
2024/03/19 06:44:45;;;;;;;12.40;7.40;;;;;;;5.36;100.00;100620.64;106420;1257;72882;-86
2024/03/19 06:47:19;;;;;;;12.20;8.00;;;;;;;5.42;100.00;100620.77;106377;1253;62417;-78
2024/03/19 06:49:53;;;;;;;14.50;7.70;;;;;;;5.49;100.00;100623.44;106742;1259;62178;-85
2024/03/19 06:52:27;;;;;;;11.20;7.40;;;;;;;5.56;100.00;100627.81;106658;1253;76620;-85
2024/03/19 06:54:54;;;;;;;12.10;7.90;;;;;;;5.62;100.00;100622.72;106581;1253;68391;-85
2024/03/19 06:57:31;;;;;;;12.50;8.40;;;;;;;5.56;100.00;100620.66;106552;1256;72402;-85
2024/03/19 07:00:14;;;;;;;12.90;7.20;;;;;;;5.53;100.00;100623.95;106390;1254;62114;-85
2024/03/19 07:02:49;;;;;;;14.00;8.50;;;;;;;5.56;100.00;100623.84;106356;1254;62095;-85
2024/03/19 07:05:17;;;;;;;11.70;8.40;;;;;;;5.65;100.00;100624.66;108221;1256;75356;-85
2024/03/19 07:07:54;;;;;;;11.60;7.70;;;;;;;5.65;100.00;100626.52;106590;1254;68335;-84
2024/03/19 07:10:28;;;;;;;15.40;8.90;;;;;;;5.73;100.00;100622.65;106610;1256;72210;-85
2024/03/19 07:12:56;;;;;;;13.00;9.20;;;;;;;5.82;100.00;100621.14;106631;1254;62334;-85
2024/03/19 07:15:25;;;;;;;12.60;7.60;;;;;;;5.91;100.00;100628.29;106604;1253;62600;-85
2024/03/19 07:17:59;;;;;;;15.40;7.90;;;;;;;5.93;100.00;100631.55;106482;1252;76654;-84
2024/03/19 07:20:33;;;;;;;11.70;8.40;;;;;;;5.95;100.00;100631.48;106797;1253;71180;-77
2024/03/19 07:23:00;;;;;;;11.60;8.40;;;;;;;5.97;100.00;100638.80;106545;1260;73340;-78
2024/03/19 07:25:34;;;;;;;13.80;8.10;;;;;;;6.00;100.00;100640.64;106670;1254;62817;-78
2024/03/19 07:28:08;;;;;;;12.30;8.50;;;;;;;6.02;100.00;100643.88;106727;1254;62117;-84
2024/03/19 07:30:42;;;;;;;10.50;7.20;;;;;;;6.07;100.00;100640.76;106536;1257;77501;-84
2024/03/19 07:33:10;;;;;;;15.70;8.60;;;;;;;6.10;100.00;100643.64;106683;1254;69061;-84
2024/03/19 07:35:44;;;;;;;13.00;8.80;;;;;;;6.13;100.00;100646.08;106697;1254;73988;-83
2024/03/19 07:38:18;;;;;;;11.30;7.20;;;;;;;6.20;100.00;100648.95;106523;1253;63766;-78
2024/03/19 07:40:51;;;;;;;10.40;7.60;;;;;;;6.17;100.00;100651.26;106767;1257;62680;-84
2024/03/19 07:43:19;;;;;;;12.50;7.90;;;;;;;6.12;100.00;100655.05;106731;1256;77747;-84
2024/03/19 07:45:53;;;;;;;13.90;8.60;;;;;;;6.13;100.00;100654.21;106448;1254;70808;-84
2024/03/19 15:47:09;;;;;;;9.50;5.60;;;;;;;7.76;100.00;100776.09;105967;1254;73400;-83
2024/03/19 15:49:43;;;;;;;22.50;11.00;;;;;;;7.71;100.00;100777.50;106086;1254;71080;-83
2024/03/19 15:52:17;;;;;;;27.70;16.50;;;;;;;7.65;100.00;100778.39;105889;1254;71903;-82
2024/03/19 15:54:45;;;;;;;19.90;12.90;;;;;;;7.57;100.00;100779.87;106016;1260;61321;-82
2024/03/19 15:57:19;;;;;;;24.30;15.40;;;;;;;7.50;100.00;100782.06;106378;1257;62351;-78
2024/03/19 15:59:53;;;;;;;19.70;12.20;;;;;;;7.44;100.00;100785.20;109280;1253;74982;-83
2024/03/19 16:02:27;;;;;;;17.00;10.50;;;;;;;7.40;100.00;100789.19;106417;1255;70280;-83
2024/03/19 16:04:55;;;;;;;20.10;11.80;;;;;;;7.41;100.00;100798.07;106598;1258;73999;-78
2024/03/19 16:07:28;;;;;;;19.80;13.10;;;;;;;7.35;100.00;100796.57;106679;1254;62707;-83
2024/03/19 16:10:02;;;;;;;20.10;12.30;;;;;;;7.27;100.00;100796.26;106628;1254;61498;-78
2024/03/19 16:12:36;;;;;;;17.90;10.10;;;;;;;7.16;100.00;100802.28;106472;1254;74513;-83
2024/03/19 16:15:04;;;;;;;13.30;7.90;;;;;;;7.15;100.00;100802.36;106607;1258;69763;-84
2024/03/19 16:17:39;;;;;;;17.10;8.30;;;;;;;7.11;100.00;100805.23;106604;1257;73651;-78
2024/03/19 16:20:14;;;;;;;17.30;8.70;;;;;;;7.06;100.00;100807.00;106384;1254;60465;-83
2024/03/19 16:22:49;;;;;;;18.10;10.80;;;;;;;7.01;100.00;100813.66;106609;1254;61129;-78
2024/03/19 16:25:19;;;;;;;12.40;6.90;;;;;;;7.02;100.00;100817.15;106543;1260;73609;-78
2024/03/19 16:27:53;;;;;;;11.80;7.00;;;;;;;6.95;100.00;100820.52;106585;1254;71141;-84
2024/03/19 16:30:27;;;;;;;12.20;6.10;;;;;;;6.92;100.00;100823.95;106424;1259;75103;-84
2024/03/19 16:33:01;;;;;;;10.00;5.60;;;;;;;6.86;100.00;100826.45;106102;1255;61074;-83
2024/03/19 16:35:28;;;;;;;14.90;7.50;;;;;;;6.84;100.00;100826.42;106116;1254;60569;-77
2024/03/19 16:38:02;;;;;;;24.60;11.60;;;;;;;6.83;100.00;100830.64;105993;1254;75045;-82
2024/03/19 16:40:38;;;;;;;29.10;15.80;;;;;;;6.78;100.00;100830.23;105857;1253;69298;-84
2024/03/19 16:43:12;;;;;;;47.90;23.80;;;;;;;6.76;100.00;100835.14;106200;1254;74868;-77
2024/03/19 16:45:39;;;;;;;54.10;28.90;;;;;;;6.70;100.00;100835.35;106743;1255;60530;-83
2024/03/19 16:48:13;;;;;;;37.70;21.40;;;;;;;6.67;100.00;100838.22;106537;1254;62672;-82
2024/03/19 16:50:52;;;;;;;32.30;16.70;;;;;;;6.65;100.00;100839.60;106415;1254;76242;-78
2024/03/19 16:53:19;;;;;;;27.20;16.10;;;;;;;6.63;100.00;100843.33;106683;1253;71020;-83
2024/03/19 16:55:53;;;;;;;28.40;17.70;;;;;;;6.57;100.00;100843.77;106499;1257;74500;-77
2024/03/19 16:58:27;;;;;;;36.60;19.30;;;;;;;6.59;100.00;100845.69;106655;1254;60554;-81
2024/03/19 17:01:00;;;;;;;42.80;25.20;;;;;;;6.64;100.00;100846.11;105958;1257;60900;-85
2024/03/19 17:03:28;;;;;;;55.70;31.50;;;;;;;6.57;100.00;100852.61;106009;1253;74944;-77
2024/03/19 17:06:03;;;;;;;54.60;30.50;;;;;;;6.54;100.00;100853.44;105835;1254;69573;-85
2024/03/19 17:08:37;;;;;;;65.40;38.40;;;;;;;6.52;100.00;100856.14;105996;1254;73473;-83
2024/03/19 17:11:14;;;;;;;62.50;35.30;;;;;;;6.45;100.00;100860.26;106029;1254;60784;-82
2024/03/19 17:13:44;;;;;;;61.60;35.40;;;;;;;6.36;100.00;100860.73;106494;1259;62419;-77
2024/03/19 17:16:19;;;;;;;65.30;37.40;;;;;;;6.27;100.00;100864.20;106040;1257;75118;-82
2024/03/19 17:18:52;;;;;;;54.10;29.20;;;;;;;6.19;100.00;100866.04;106491;1254;68700;-77
2024/03/19 17:21:26;;;;;;;47.20;27.50;;;;;;;6.12;100.00;100870.86;106038;1260;74680;-79
2024/03/19 17:23:54;;;;;;;54.20;30.20;;;;;;;6.07;100.00;100875.60;105995;1254;61160;-83
2024/03/19 17:26:27;;;;;;;51.80;28.50;;;;;;;5.94;100.00;100878.96;105933;1254;62074;-77
2024/03/19 17:29:01;;;;;;;53.30;27.20;;;;;;;5.88;100.00;100882.48;105990;1259;75933;-83
2024/03/19 17:31:35;;;;;;;49.60;26.40;;;;;;;5.77;100.00;100884.38;106100;1254;71007;-83
2024/03/19 17:34:03;;;;;;;45.90;25.80;;;;;;;5.69;100.00;100886.45;107298;1254;75138;-77
2024/03/19 17:36:37;;;;;;;51.50;28.40;;;;;;;5.68;100.00;100888.65;106038;1254;61469;-77
2024/03/19 17:39:11;;;;;;;58.20;33.90;;;;;;;5.67;100.00;100891.13;106027;1260;62084;-78
2024/03/19 17:41:45;;;;;;;56.30;31.60;;;;;;;5.65;100.00;100889.66;106007;1258;75051;-83
2024/03/19 17:44:13;;;;;;;53.40;30.80;;;;;;;5.59;100.00;100897.60;106056;1254;70413;-83
2024/03/19 17:46:47;;;;;;;56.40;31.40;;;;;;;5.53;100.00;100896.39;105932;1254;75334;-78
2024/03/19 17:49:21;;;;;;;53.70;29.00;;;;;;;5.51;100.00;100894.88;106008;1257;62993;-84
2024/03/19 17:51:49;;;;;;;54.40;29.40;;;;;;;5.52;100.00;100898.75;106017;1259;61375;-83
2024/03/19 17:54:23;;;;;;;49.70;28.50;;;;;;;5.45;100.00;100899.34;106036;1256;76080;-83
2024/03/19 17:56:57;;;;;;;45.40;27.80;;;;;;;5.42;100.00;100896.71;105894;1258;71109;-77
2024/03/19 17:59:30;;;;;;;54.80;27.70;;;;;;;5.40;100.00;100898.09;106007;1254;74923;-83
2024/03/19 18:02:00;;;;;;;53.60;27.50;;;;;;;5.42;100.00;100899.17;105964;1258;63519;-77
2024/03/19 18:04:33;;;;;;;49.10;28.20;;;;;;;5.44;100.00;100901.60;106287;1259;60958;-83
2024/03/19 18:07:07;;;;;;;50.20;28.20;;;;;;;5.43;100.00;100904.00;105924;1254;75840;-77
2024/03/19 18:09:41;;;;;;;50.20;28.50;;;;;;;5.40;100.00;100905.48;106935;1256;70341;-83
2024/03/19 18:12:09;;;;;;;48.60;25.60;;;;;;;5.39;100.00;100908.19;105956;1259;73119;-78
2024/03/19 18:14:43;;;;;;;42.20;19.20;;;;;;;5.41;100.00;100910.04;106081;1259;62632;-83
2024/03/19 18:17:16;;;;;;;35.70;17.10;;;;;;;5.45;100.00;100912.80;106065;1254;61516;-78
2024/03/19 18:19:50;;;;;;;45.10;16.90;;;;;;;5.55;100.00;100914.39;105947;1254;76189;-77
2024/03/19 18:22:18;;;;;;;26.60;9.90;;;;;;;5.63;100.00;100917.43;105968;1254;70787;-83
2024/03/19 18:24:51;;;;;;;17.50;6.80;;;;;;;5.65;100.00;100920.31;106179;1257;73481;-83
2024/03/19 18:27:25;;;;;;;12.80;5.50;;;;;;;5.76;100.00;100919.13;105872;1259;61486;-78
2024/03/19 18:29:53;;;;;;;16.70;7.10;;;;;;;5.90;100.00;100922.73;106111;1259;61108;-77
2024/03/19 18:32:28;;;;;;;17.00;7.00;;;;;;;5.95;100.00;100923.66;105931;1259;76177;-83
2024/03/19 18:35:03;;;;;;;11.80;5.20;;;;;;;6.02;100.00;100924.43;105873;1254;69689;-78
2024/03/19 18:37:37;;;;;;;14.20;6.00;;;;;;;6.08;100.00;100929.23;106039;1259;74919;-78
2024/03/19 18:40:06;;;;;;;14.80;5.80;;;;;;;6.12;100.00;100931.50;105981;1258;61224;-78
2024/03/19 18:42:40;;;;;;;12.80;4.50;;;;;;;6.11;100.00;100933.95;106153;1259;60454;-84
2024/03/19 18:45:15;;;;;;;17.40;6.20;;;;;;;6.09;100.00;100934.02;106023;1254;75876;-82
2024/03/19 18:47:50;;;;;;;14.80;6.70;;;;;;;6.11;100.00;100934.02;106046;1254;69497;-82
2024/03/19 18:50:31;;;;;;;10.90;8.90;;;;;;;6.12;100.00;100936.27;105943;1260;74772;-77
2024/03/19 18:53:05;;;;;;;9.80;4.60;;;;;;;6.10;100.00;100937.42;105978;1257;62724;-77
2024/03/19 18:55:39;;;;;;;8.80;3.80;;;;;;;6.11;100.00;100937.70;105969;1254;62282;-77
2024/03/19 18:58:13;;;;;;;11.50;5.60;;;;;;;6.10;100.00;100938.77;105802;1262;78343;-83
2024/03/19 19:00:41;;;;;;;14.20;5.90;;;;;;;6.06;100.00;100938.75;106251;1257;71164;-77
2024/03/19 19:03:14;;;;;;;19.00;8.80;;;;;;;6.06;100.00;100940.80;106078;1268;74642;-82
2024/03/19 19:05:48;;;;;;;10.60;5.30;;;;;;;6.00;100.00;100940.47;106168;1254;62305;-77
2024/03/19 19:08:22;;;;;;;6.30;3.60;;;;;;;5.98;100.00;100945.80;106192;1256;62203;-83
2024/03/19 19:10:50;;;;;;;7.60;3.70;;;;;;;5.96;100.00;100944.93;105990;1259;75624;-82
2024/03/19 19:13:23;;;;;;;5.50;3.30;;;;;;;5.98;100.00;100946.72;105950;1260;71020;-82
2024/03/19 19:15:57;;;;;;;11.30;5.90;;;;;;;5.99;100.00;100949.81;105982;1258;75062;-78
2024/03/19 19:18:31;;;;;;;7.00;4.20;;;;;;;5.96;100.00;100957.89;105956;1258;61346;-82
2024/03/19 19:20:59;;;;;;;6.10;3.70;;;;;;;5.91;100.00;100956.94;105916;1254;62582;-78
2024/03/19 19:23:32;;;;;;;7.10;4.20;;;;;;;5.85;100.00;100960.42;105934;1259;75929;-82
2024/03/19 19:26:07;;;;;;;9.10;4.20;;;;;;;5.80;100.00;100959.92;106061;1259;70273;-77
2024/03/19 19:28:40;;;;;;;7.20;3.70;;;;;;;5.78;100.00;100959.29;105988;1257;75843;-77
2024/03/19 19:31:09;;;;;;;17.10;7.50;;;;;;;5.75;100.00;100959.17;105855;1259;62437;-77
2024/03/19 19:33:43;;;;;;;19.80;9.10;;;;;;;5.72;100.00;100958.39;105969;1258;62246;-82
2024/03/19 19:36:17;;;;;;;18.70;10.50;;;;;;;5.70;100.00;100954.98;105947;1257;77103;-77
2024/03/19 19:38:45;;;;;;;19.60;9.20;;;;;;;5.71;100.00;100956.30;106076;1255;69678;-77